sensor_id;sensor_type;location;lat;lon;timestamp;P1;durP1;ratioP1;P2;durP2;ratioP2
43646;SDS011;56152;49.996;18.980;2023-05-13T00:00:49;17.80;;;10.18;;
43646;SDS011;56152;49.996;18.980;2023-05-13T00:05:51;19.23;;;11.70;;
43646;SDS011;56152;49.996;18.980;2023-05-13T00:10:54;22.05;;;12.07;;
43646;SDS011;56152;49.996;18.980;2023-05-13T00:15:58;24.83;;;12.93;;
43646;SDS011;56152;49.996;18.980;2023-05-13T00:21:01;24.45;;;13.20;;
43646;SDS011;56152;49.996;18.980;2023-05-13T00:26:03;26.90;;;11.73;;
43646;SDS011;56152;49.996;18.980;2023-05-13T00:31:08;17.77;;;11.20;;
43646;SDS011;56152;49.996;18.980;2023-05-13T00:36:11;22.42;;;13.30;;
43646;SDS011;56152;49.996;18.980;2023-05-13T00:41:13;24.58;;;16.05;;
43646;SDS011;56152;49.996;18.980;2023-05-13T00:46:20;17.33;;;11.90;;
43646;SDS011;56152;49.996;18.980;2023-05-13T00:51:22;12.35;;;8.48;;
43646;SDS011;56152;49.996;18.980;2023-05-13T00:56:29;19.70;;;11.65;;
43646;SDS011;56152;49.996;18.980;2023-05-13T01:01:44;17.13;;;10.55;;
43646;SDS011;56152;49.996;18.980;2023-05-13T01:06:56;16.20;;;10.93;;
43646;SDS011;56152;49.996;18.980;2023-05-13T01:12:12;25.98;;;14.90;;
43646;SDS011;56152;49.996;18.980;2023-05-13T01:17:29;22.17;;;13.50;;
43646;SDS011;56152;49.996;18.980;2023-05-13T01:22:35;20.70;;;12.90;;
43646;SDS011;56152;49.996;18.980;2023-05-13T01:27:38;20.88;;;14.18;;
43646;SDS011;56152;49.996;18.980;2023-05-13T01:32:43;16.20;;;10.73;;
43646;SDS011;56152;49.996;18.980;2023-05-13T01:37:48;19.75;;;10.82;;
43646;SDS011;56152;49.996;18.980;2023-05-13T01:42:51;18.75;;;10.68;;
43646;SDS011;56152;49.996;18.980;2023-05-13T01:47:54;17.35;;;11.48;;
43646;SDS011;56152;49.996;18.980;2023-05-13T01:52:59;15.27;;;9.88;;
43646;SDS011;56152;49.996;18.980;2023-05-13T01:58:01;21.75;;;15.82;;
43646;SDS011;56152;49.996;18.980;2023-05-13T02:03:03;17.30;;;12.88;;
43646;SDS011;56152;49.996;18.980;2023-05-13T02:08:07;20.05;;;13.18;;
43646;SDS011;56152;49.996;18.980;2023-05-13T02:13:09;27.73;;;15.82;;
43646;SDS011;56152;49.996;18.980;2023-05-13T02:18:11;27.05;;;13.73;;
43646;SDS011;56152;49.996;18.980;2023-05-13T02:23:16;16.23;;;9.15;;
43646;SDS011;56152;49.996;18.980;2023-05-13T02:28:18;14.57;;;9.60;;
43646;SDS011;56152;49.996;18.980;2023-05-13T02:33:22;17.92;;;9.63;;
43646;SDS011;56152;49.996;18.980;2023-05-13T02:38:27;21.98;;;13.27;;
43646;SDS011;56152;49.996;18.980;2023-05-13T02:43:29;12.98;;;9.35;;
43646;SDS011;56152;49.996;18.980;2023-05-13T02:48:33;24.60;;;15.18;;
43646;SDS011;56152;49.996;18.980;2023-05-13T02:53:38;21.98;;;13.75;;
43646;SDS011;56152;49.996;18.980;2023-05-13T02:58:40;27.67;;;15.00;;
43646;SDS011;56152;49.996;18.980;2023-05-13T03:03:46;19.90;;;13.95;;
43646;SDS011;56152;49.996;18.980;2023-05-13T03:08:51;21.92;;;15.43;;
43646;SDS011;56152;49.996;18.980;2023-05-13T03:13:54;25.38;;;17.92;;
43646;SDS011;56152;49.996;18.980;2023-05-13T03:18:56;33.60;;;19.90;;
43646;SDS011;56152;49.996;18.980;2023-05-13T03:24:02;36.92;;;20.05;;
43646;SDS011;56152;49.996;18.980;2023-05-13T03:29:04;30.25;;;18.60;;
43646;SDS011;56152;49.996;18.980;2023-05-13T03:34:14;27.73;;;17.52;;
43646;SDS011;56152;49.996;18.980;2023-05-13T03:39:18;23.08;;;13.43;;
43646;SDS011;56152;49.996;18.980;2023-05-13T03:44:21;19.80;;;14.20;;
43646;SDS011;56152;49.996;18.980;2023-05-13T03:49:23;20.83;;;15.52;;
43646;SDS011;56152;49.996;18.980;2023-05-13T03:54:30;20.17;;;14.02;;
43646;SDS011;56152;49.996;18.980;2023-05-13T03:59:32;20.48;;;14.48;;
43646;SDS011;56152;49.996;18.980;2023-05-13T04:04:38;18.40;;;13.52;;
43646;SDS011;56152;49.996;18.980;2023-05-13T04:09:43;21.60;;;15.75;;
43646;SDS011;56152;49.996;18.980;2023-05-13T04:14:45;17.63;;;13.57;;
43646;SDS011;56152;49.996;18.980;2023-05-13T04:19:47;16.35;;;11.18;;
43646;SDS011;56152;49.996;18.980;2023-05-13T04:24:54;17.15;;;12.38;;
43646;SDS011;56152;49.996;18.980;2023-05-13T04:29:56;15.32;;;11.75;;
43646;SDS011;56152;49.996;18.980;2023-05-13T04:35:01;14.70;;;11.10;;
43646;SDS011;56152;49.996;18.980;2023-05-13T04:40:05;17.23;;;11.32;;
43646;SDS011;56152;49.996;18.980;2023-05-13T04:45:08;21.17;;;11.55;;
43646;SDS011;56152;49.996;18.980;2023-05-13T04:50:10;14.52;;;9.75;;
43646;SDS011;56152;49.996;18.980;2023-05-13T04:55:14;15.73;;;11.55;;
43646;SDS011;56152;49.996;18.980;2023-05-13T05:00:19;12.40;;;9.73;;
43646;SDS011;56152;49.996;18.980;2023-05-13T05:05:21;25.05;;;12.50;;
43646;SDS011;56152;49.996;18.980;2023-05-13T05:10:26;15.35;;;11.07;;
43646;SDS011;56152;49.996;18.980;2023-05-13T05:15:28;13.88;;;9.85;;
43646;SDS011;56152;49.996;18.980;2023-05-13T05:20:31;13.52;;;9.23;;
43646;SDS011;56152;49.996;18.980;2023-05-13T05:25:36;16.45;;;10.20;;
43646;SDS011;56152;49.996;18.980;2023-05-13T05:30:41;14.85;;;9.57;;
43646;SDS011;56152;49.996;18.980;2023-05-13T05:35:45;11.48;;;7.97;;
43646;SDS011;56152;49.996;18.980;2023-05-13T05:40:49;16.95;;;9.18;;
43646;SDS011;56152;49.996;18.980;2023-05-13T05:45:51;11.60;;;8.60;;
43646;SDS011;56152;49.996;18.980;2023-05-13T05:50:56;9.73;;;7.22;;
43646;SDS011;56152;49.996;18.980;2023-05-13T05:56:01;10.90;;;7.55;;
43646;SDS011;56152;49.996;18.980;2023-05-13T06:01:03;12.90;;;7.50;;
43646;SDS011;56152;49.996;18.980;2023-05-13T06:06:06;13.52;;;6.72;;
43646;SDS011;56152;49.996;18.980;2023-05-13T06:11:10;15.63;;;9.18;;
43646;SDS011;56152;49.996;18.980;2023-05-13T06:16:12;13.18;;;7.78;;
43646;SDS011;56152;49.996;18.980;2023-05-13T06:21:19;11.18;;;7.50;;
43646;SDS011;56152;49.996;18.980;2023-05-13T06:26:23;9.65;;;6.57;;
43646;SDS011;56152;49.996;18.980;2023-05-13T06:31:25;12.55;;;7.68;;
43646;SDS011;56152;49.996;18.980;2023-05-13T06:36:27;14.50;;;7.05;;
43646;SDS011;56152;49.996;18.980;2023-05-13T06:41:31;9.68;;;6.72;;
43646;SDS011;56152;49.996;18.980;2023-05-13T06:46:34;8.73;;;5.57;;
43646;SDS011;56152;49.996;18.980;2023-05-13T06:51:35;10.07;;;6.93;;
43646;SDS011;56152;49.996;18.980;2023-05-13T06:56:40;9.90;;;7.20;;
43646;SDS011;56152;49.996;18.980;2023-05-13T07:01:42;9.23;;;6.30;;
43646;SDS011;56152;49.996;18.980;2023-05-13T07:06:43;15.27;;;6.70;;
43646;SDS011;56152;49.996;18.980;2023-05-13T07:11:52;9.32;;;6.22;;
43646;SDS011;56152;49.996;18.980;2023-05-13T07:16:54;9.40;;;5.57;;
43646;SDS011;56152;49.996;18.980;2023-05-13T07:21:58;10.90;;;6.57;;
43646;SDS011;56152;49.996;18.980;2023-05-13T07:27:05;12.63;;;5.60;;
43646;SDS011;56152;49.996;18.980;2023-05-13T07:32:07;10.10;;;5.38;;
43646;SDS011;56152;49.996;18.980;2023-05-13T07:37:10;9.65;;;5.28;;
43646;SDS011;56152;49.996;18.980;2023-05-13T07:42:17;6.72;;;4.70;;
43646;SDS011;56152;49.996;18.980;2023-05-13T07:47:19;7.45;;;4.30;;
43646;SDS011;56152;49.996;18.980;2023-05-13T07:52:21;5.97;;;4.00;;
43646;SDS011;56152;49.996;18.980;2023-05-13T07:57:24;11.45;;;4.43;;
43646;SDS011;56152;49.996;18.980;2023-05-13T08:02:26;8.75;;;3.83;;
43646;SDS011;56152;49.996;18.980;2023-05-13T08:07:33;6.53;;;3.83;;
43646;SDS011;56152;49.996;18.980;2023-05-13T08:12:36;5.07;;;3.58;;
43646;SDS011;56152;49.996;18.980;2023-05-13T08:17:39;4.68;;;2.92;;
43646;SDS011;56152;49.996;18.980;2023-05-13T08:22:44;4.25;;;2.97;;
43646;SDS011;56152;49.996;18.980;2023-05-13T08:27:53;5.70;;;2.97;;
43646;SDS011;56152;49.996;18.980;2023-05-13T08:32:55;4.45;;;3.05;;
43646;SDS011;56152;49.996;18.980;2023-05-13T08:37:57;9.48;;;3.60;;
43646;SDS011;56152;49.996;18.980;2023-05-13T08:43:01;7.15;;;3.05;;
43646;SDS011;56152;49.996;18.980;2023-05-13T08:48:05;8.02;;;2.95;;
43646;SDS011;56152;49.996;18.980;2023-05-13T08:53:09;9.13;;;4.93;;
43646;SDS011;56152;49.996;18.980;2023-05-13T08:58:14;6.68;;;4.13;;
43646;SDS011;56152;49.996;18.980;2023-05-13T09:03:16;6.30;;;3.30;;
43646;SDS011;56152;49.996;18.980;2023-05-13T09:08:20;5.10;;;3.05;;
43646;SDS011;56152;49.996;18.980;2023-05-13T09:13:24;9.40;;;3.08;;
43646;SDS011;56152;49.996;18.980;2023-05-13T09:18:28;5.05;;;3.47;;
43646;SDS011;56152;49.996;18.980;2023-05-13T09:23:32;5.93;;;3.22;;
43646;SDS011;56152;49.996;18.980;2023-05-13T09:28:37;6.13;;;3.20;;
43646;SDS011;56152;49.996;18.980;2023-05-13T09:33:39;7.38;;;3.88;;
43646;SDS011;56152;49.996;18.980;2023-05-13T09:38:53;7.03;;;2.65;;
43646;SDS011;56152;49.996;18.980;2023-05-13T09:43:59;3.63;;;2.45;;
43646;SDS011;56152;49.996;18.980;2023-05-13T09:49:03;6.53;;;3.03;;
43646;SDS011;56152;49.996;18.980;2023-05-13T09:54:08;150.38;;;10.85;;
43646;SDS011;56152;49.996;18.980;2023-05-13T09:59:11;3.50;;;2.30;;
43646;SDS011;56152;49.996;18.980;2023-05-13T10:04:16;6.60;;;2.88;;
43646;SDS011;56152;49.996;18.980;2023-05-13T10:09:18;5.65;;;2.90;;
43646;SDS011;56152;49.996;18.980;2023-05-13T10:14:27;8.43;;;2.70;;
43646;SDS011;56152;49.996;18.980;2023-05-13T10:19:33;4.90;;;2.75;;
43646;SDS011;56152;49.996;18.980;2023-05-13T10:24:37;5.80;;;2.30;;
43646;SDS011;56152;49.996;18.980;2023-05-13T10:29:43;4.18;;;2.60;;
43646;SDS011;56152;49.996;18.980;2023-05-13T10:34:46;5.75;;;2.72;;
43646;SDS011;56152;49.996;18.980;2023-05-13T10:45:30;6.43;;;2.20;;
43646;SDS011;56152;49.996;18.980;2023-05-13T10:50:35;8.32;;;2.83;;
43646;SDS011;56152;49.996;18.980;2023-05-13T10:55:39;9.98;;;3.95;;
43646;SDS011;56152;49.996;18.980;2023-05-13T11:00:46;7.90;;;2.28;;
43646;SDS011;56152;49.996;18.980;2023-05-13T11:05:57;6.15;;;2.53;;
43646;SDS011;56152;49.996;18.980;2023-05-13T11:11:15;3.53;;;1.98;;
43646;SDS011;56152;49.996;18.980;2023-05-13T11:16:33;3.15;;;1.90;;
43646;SDS011;56152;49.996;18.980;2023-05-13T11:21:36;3.60;;;2.00;;
43646;SDS011;56152;49.996;18.980;2023-05-13T11:26:44;6.03;;;2.15;;
43646;SDS011;56152;49.996;18.980;2023-05-13T11:31:49;8.63;;;2.42;;
43646;SDS011;56152;49.996;18.980;2023-05-13T11:36:54;8.00;;;2.17;;
43646;SDS011;56152;49.996;18.980;2023-05-13T11:41:58;5.07;;;1.88;;
43646;SDS011;56152;49.996;18.980;2023-05-13T11:47:04;6.88;;;2.10;;
43646;SDS011;56152;49.996;18.980;2023-05-13T11:57:22;8.98;;;2.22;;
43646;SDS011;56152;49.996;18.980;2023-05-13T12:02:27;5.28;;;2.15;;
43646;SDS011;56152;49.996;18.980;2023-05-13T12:07:32;8.15;;;2.20;;
43646;SDS011;56152;49.996;18.980;2023-05-13T12:12:39;14.32;;;2.30;;
43646;SDS011;56152;49.996;18.980;2023-05-13T12:17:44;6.80;;;2.17;;
43646;SDS011;56152;49.996;18.980;2023-05-13T12:22:52;3.83;;;2.42;;
43646;SDS011;56152;49.996;18.980;2023-05-13T12:27:55;11.00;;;2.13;;
43646;SDS011;56152;49.996;18.980;2023-05-13T12:33:01;3.75;;;2.15;;
43646;SDS011;56152;49.996;18.980;2023-05-13T12:38:05;3.45;;;2.25;;
43646;SDS011;56152;49.996;18.980;2023-05-13T12:43:07;5.53;;;2.22;;
43646;SDS011;56152;49.996;18.980;2023-05-13T12:48:13;7.68;;;2.85;;
43646;SDS011;56152;49.996;18.980;2023-05-13T12:53:14;3.40;;;2.28;;
43646;SDS011;56152;49.996;18.980;2023-05-13T12:58:17;4.43;;;2.20;;
43646;SDS011;56152;49.996;18.980;2023-05-13T13:03:21;3.00;;;2.15;;
43646;SDS011;56152;49.996;18.980;2023-05-13T13:08:24;5.03;;;2.33;;
43646;SDS011;56152;49.996;18.980;2023-05-13T13:13:27;6.75;;;3.22;;
43646;SDS011;56152;49.996;18.980;2023-05-13T13:18:34;5.40;;;2.13;;
43646;SDS011;56152;49.996;18.980;2023-05-13T13:23:36;3.63;;;2.22;;
43646;SDS011;56152;49.996;18.980;2023-05-13T13:28:38;4.53;;;2.50;;
43646;SDS011;56152;49.996;18.980;2023-05-13T13:33:41;5.32;;;2.45;;
43646;SDS011;56152;49.996;18.980;2023-05-13T13:38:43;3.53;;;1.98;;
43646;SDS011;56152;49.996;18.980;2023-05-13T13:43:45;5.35;;;2.60;;
43646;SDS011;56152;49.996;18.980;2023-05-13T13:48:49;5.97;;;2.20;;
43646;SDS011;56152;49.996;18.980;2023-05-13T13:53:53;4.38;;;2.38;;
43646;SDS011;56152;49.996;18.980;2023-05-13T13:58:55;9.32;;;2.28;;
43646;SDS011;56152;49.996;18.980;2023-05-13T14:04:10;5.13;;;1.90;;
43646;SDS011;56152;49.996;18.980;2023-05-13T14:09:14;3.08;;;1.77;;
43646;SDS011;56152;49.996;18.980;2023-05-13T14:14:16;2.10;;;1.85;;
43646;SDS011;56152;49.996;18.980;2023-05-13T14:19:20;3.80;;;2.35;;
43646;SDS011;56152;49.996;18.980;2023-05-13T14:24:23;8.65;;;4.57;;
43646;SDS011;56152;49.996;18.980;2023-05-13T14:29:27;3.97;;;2.50;;
43646;SDS011;56152;49.996;18.980;2023-05-13T14:34:31;4.97;;;2.45;;
43646;SDS011;56152;49.996;18.980;2023-05-13T14:39:33;4.10;;;2.40;;
43646;SDS011;56152;49.996;18.980;2023-05-13T14:44:36;19.45;;;3.33;;
43646;SDS011;56152;49.996;18.980;2023-05-13T14:49:41;4.45;;;2.75;;
43646;SDS011;56152;49.996;18.980;2023-05-13T14:54:46;8.57;;;2.30;;
43646;SDS011;56152;49.996;18.980;2023-05-13T14:59:53;5.30;;;2.30;;
43646;SDS011;56152;49.996;18.980;2023-05-13T15:04:56;6.28;;;2.30;;
43646;SDS011;56152;49.996;18.980;2023-05-13T15:09:58;7.18;;;3.05;;
43646;SDS011;56152;49.996;18.980;2023-05-13T15:15:04;8.68;;;3.15;;
43646;SDS011;56152;49.996;18.980;2023-05-13T15:20:14;9.52;;;4.20;;
43646;SDS011;56152;49.996;18.980;2023-05-13T15:25:16;18.63;;;5.75;;
43646;SDS011;56152;49.996;18.980;2023-05-13T15:30:18;8.23;;;3.90;;
43646;SDS011;56152;49.996;18.980;2023-05-13T15:35:21;58.47;;;29.58;;
43646;SDS011;56152;49.996;18.980;2023-05-13T15:40:23;15.02;;;6.22;;
43646;SDS011;56152;49.996;18.980;2023-05-13T15:45:25;5.20;;;3.05;;
43646;SDS011;56152;49.996;18.980;2023-05-13T15:50:28;8.48;;;3.00;;
43646;SDS011;56152;49.996;18.980;2023-05-13T15:55:33;5.20;;;2.90;;
43646;SDS011;56152;49.996;18.980;2023-05-13T16:00:38;8.38;;;2.90;;
43646;SDS011;56152;49.996;18.980;2023-05-13T16:05:42;6.50;;;3.00;;
43646;SDS011;56152;49.996;18.980;2023-05-13T16:10:44;4.53;;;2.80;;
43646;SDS011;56152;49.996;18.980;2023-05-13T16:15:55;8.77;;;2.90;;
43646;SDS011;56152;49.996;18.980;2023-05-13T16:20:59;5.28;;;2.97;;
43646;SDS011;56152;49.996;18.980;2023-05-13T16:26:02;7.18;;;3.00;;
43646;SDS011;56152;49.996;18.980;2023-05-13T16:31:04;5.40;;;2.90;;
43646;SDS011;56152;49.996;18.980;2023-05-13T16:36:10;3.28;;;2.47;;
43646;SDS011;56152;49.996;18.980;2023-05-13T16:41:13;8.65;;;3.55;;
43646;SDS011;56152;49.996;18.980;2023-05-13T16:46:15;6.47;;;3.10;;
43646;SDS011;56152;49.996;18.980;2023-05-13T16:51:20;4.85;;;3.03;;
43646;SDS011;56152;49.996;18.980;2023-05-13T16:56:22;5.47;;;2.78;;
43646;SDS011;56152;49.996;18.980;2023-05-13T17:01:25;10.95;;;3.60;;
43646;SDS011;56152;49.996;18.980;2023-05-13T17:06:29;11.35;;;4.65;;
43646;SDS011;56152;49.996;18.980;2023-05-13T17:11:31;12.35;;;5.13;;
43646;SDS011;56152;49.996;18.980;2023-05-13T17:16:33;7.05;;;4.43;;
43646;SDS011;56152;49.996;18.980;2023-05-13T17:21:36;9.27;;;3.90;;
43646;SDS011;56152;49.996;18.980;2023-05-13T17:26:41;9.90;;;5.22;;
43646;SDS011;56152;49.996;18.980;2023-05-13T17:31:43;10.40;;;4.70;;
43646;SDS011;56152;49.996;18.980;2023-05-13T17:36:49;9.50;;;4.97;;
43646;SDS011;56152;49.996;18.980;2023-05-13T17:41:52;7.82;;;4.00;;
43646;SDS011;56152;49.996;18.980;2023-05-13T17:46:57;8.55;;;4.47;;
43646;SDS011;56152;49.996;18.980;2023-05-13T17:52:02;9.82;;;4.63;;
43646;SDS011;56152;49.996;18.980;2023-05-13T17:57:05;9.75;;;3.70;;
43646;SDS011;56152;49.996;18.980;2023-05-13T18:02:10;7.95;;;4.03;;
43646;SDS011;56152;49.996;18.980;2023-05-13T18:07:15;7.95;;;3.60;;
43646;SDS011;56152;49.996;18.980;2023-05-13T18:12:18;10.98;;;4.50;;
43646;SDS011;56152;49.996;18.980;2023-05-13T18:17:33;7.78;;;4.10;;
43646;SDS011;56152;49.996;18.980;2023-05-13T18:22:40;5.80;;;3.88;;
43646;SDS011;56152;49.996;18.980;2023-05-13T18:27:42;5.25;;;3.72;;
43646;SDS011;56152;49.996;18.980;2023-05-13T18:32:44;7.78;;;3.97;;
43646;SDS011;56152;49.996;18.980;2023-05-13T18:37:48;10.85;;;4.10;;
43646;SDS011;56152;49.996;18.980;2023-05-13T18:42:53;12.07;;;5.60;;
43646;SDS011;56152;49.996;18.980;2023-05-13T18:47:56;10.52;;;4.97;;
43646;SDS011;56152;49.996;18.980;2023-05-13T18:53:00;12.70;;;7.47;;
43646;SDS011;56152;49.996;18.980;2023-05-13T18:58:05;12.57;;;6.45;;
43646;SDS011;56152;49.996;18.980;2023-05-13T19:03:07;11.43;;;6.20;;
43646;SDS011;56152;49.996;18.980;2023-05-13T19:08:11;16.38;;;6.43;;
43646;SDS011;56152;49.996;18.980;2023-05-13T19:13:13;11.75;;;6.38;;
43646;SDS011;56152;49.996;18.980;2023-05-13T19:18:21;11.95;;;6.38;;
43646;SDS011;56152;49.996;18.980;2023-05-13T19:23:24;14.38;;;6.25;;
43646;SDS011;56152;49.996;18.980;2023-05-13T19:28:26;18.33;;;7.38;;
43646;SDS011;56152;49.996;18.980;2023-05-13T19:33:28;17.05;;;8.90;;
43646;SDS011;56152;49.996;18.980;2023-05-13T19:38:31;16.48;;;9.18;;
43646;SDS011;56152;49.996;18.980;2023-05-13T19:43:34;33.83;;;20.23;;
43646;SDS011;56152;49.996;18.980;2023-05-13T19:48:37;24.70;;;12.85;;
43646;SDS011;56152;49.996;18.980;2023-05-13T19:53:42;20.30;;;11.63;;
43646;SDS011;56152;49.996;18.980;2023-05-13T19:58:46;22.00;;;11.52;;
43646;SDS011;56152;49.996;18.980;2023-05-13T20:03:49;18.38;;;10.05;;
43646;SDS011;56152;49.996;18.980;2023-05-13T20:09:00;12.63;;;8.43;;
43646;SDS011;56152;49.996;18.980;2023-05-13T20:14:02;16.92;;;8.75;;
43646;SDS011;56152;49.996;18.980;2023-05-13T20:19:06;14.38;;;7.80;;
43646;SDS011;56152;49.996;18.980;2023-05-13T20:24:10;15.98;;;8.85;;
43646;SDS011;56152;49.996;18.980;2023-05-13T20:29:16;22.58;;;13.38;;
43646;SDS011;56152;49.996;18.980;2023-05-13T20:34:19;22.52;;;12.95;;
43646;SDS011;56152;49.996;18.980;2023-05-13T20:39:24;22.98;;;12.90;;
43646;SDS011;56152;49.996;18.980;2023-05-13T20:44:27;19.75;;;11.85;;
43646;SDS011;56152;49.996;18.980;2023-05-13T20:49:34;16.33;;;9.70;;
43646;SDS011;56152;49.996;18.980;2023-05-13T20:54:47;13.63;;;8.15;;
43646;SDS011;56152;49.996;18.980;2023-05-13T20:59:49;14.05;;;8.13;;
43646;SDS011;56152;49.996;18.980;2023-05-13T21:04:53;11.57;;;6.78;;
43646;SDS011;56152;49.996;18.980;2023-05-13T21:09:57;17.73;;;8.52;;
43646;SDS011;56152;49.996;18.980;2023-05-13T21:15:02;10.23;;;6.25;;
43646;SDS011;56152;49.996;18.980;2023-05-13T21:20:05;15.23;;;8.50;;
43646;SDS011;56152;49.996;18.980;2023-05-13T21:25:13;15.05;;;7.28;;
43646;SDS011;56152;49.996;18.980;2023-05-13T21:30:15;12.25;;;7.95;;
43646;SDS011;56152;49.996;18.980;2023-05-13T21:35:18;9.52;;;5.72;;
43646;SDS011;56152;49.996;18.980;2023-05-13T21:40:26;28.35;;;14.20;;
43646;SDS011;56152;49.996;18.980;2023-05-13T21:45:29;27.88;;;11.98;;
43646;SDS011;56152;49.996;18.980;2023-05-13T21:50:31;139.65;;;68.32;;
43646;SDS011;56152;49.996;18.980;2023-05-13T21:55:38;34.33;;;17.38;;
43646;SDS011;56152;49.996;18.980;2023-05-13T22:00:40;26.40;;;12.98;;
43646;SDS011;56152;49.996;18.980;2023-05-13T22:05:43;20.08;;;11.05;;
43646;SDS011;56152;49.996;18.980;2023-05-13T22:10:48;17.17;;;9.73;;
43646;SDS011;56152;49.996;18.980;2023-05-13T22:15:50;16.60;;;8.75;;
43646;SDS011;56152;49.996;18.980;2023-05-13T22:20:53;22.10;;;10.93;;
43646;SDS011;56152;49.996;18.980;2023-05-13T22:26:00;19.33;;;12.27;;
43646;SDS011;56152;49.996;18.980;2023-05-13T22:31:02;20.67;;;10.75;;
43646;SDS011;56152;49.996;18.980;2023-05-13T22:36:07;19.58;;;11.15;;
43646;SDS011;56152;49.996;18.980;2023-05-13T22:41:12;28.35;;;14.45;;
43646;SDS011;56152;49.996;18.980;2023-05-13T22:46:14;20.52;;;12.68;;
43646;SDS011;56152;49.996;18.980;2023-05-13T22:51:16;16.40;;;9.23;;
43646;SDS011;56152;49.996;18.980;2023-05-13T22:56:20;16.40;;;10.35;;
43646;SDS011;56152;49.996;18.980;2023-05-13T23:01:22;27.92;;;15.02;;
43646;SDS011;56152;49.996;18.980;2023-05-13T23:06:27;23.02;;;11.32;;
43646;SDS011;56152;49.996;18.980;2023-05-13T23:11:33;23.88;;;14.27;;
43646;SDS011;56152;49.996;18.980;2023-05-13T23:16:35;24.67;;;14.38;;
43646;SDS011;56152;49.996;18.980;2023-05-13T23:21:37;25.63;;;12.55;;
43646;SDS011;56152;49.996;18.980;2023-05-13T23:26:42;35.33;;;18.23;;
43646;SDS011;56152;49.996;18.980;2023-05-13T23:31:47;30.02;;;17.05;;
43646;SDS011;56152;49.996;18.980;2023-05-13T23:36:50;24.50;;;14.98;;
43646;SDS011;56152;49.996;18.980;2023-05-13T23:41:55;27.45;;;13.25;;
43646;SDS011;56152;49.996;18.980;2023-05-13T23:46:57;27.80;;;16.42;;
43646;SDS011;56152;49.996;18.980;2023-05-13T23:52:00;24.65;;;15.88;;
43646;SDS011;56152;49.996;18.980;2023-05-13T23:57:04;24.38;;;14.48;;
